Time;durP1;ratioP1;P1;durP2;ratioP2;P2;SDS_P1;SDS_P2;PMS_P1;PMS_P2;Temp;Humidity;BMP_temperature;BMP_pressure;BME280_temperature;BME280_humidity;BME280_pressure;Samples;Min_cycle;Max_cycle;Signal;HPM_P1;HPM_P2
2022/08/28 00:01:07;;;;;;;6.15;4.70;;;19.90;99.90;;;;;;5091023;28;20040;-47
2022/08/28 00:03:33;;;;;;;8.02;4.97;;;19.90;99.90;;;;;;5109826;28;20430;-48
2022/08/28 00:05:59;;;;;;;6.95;4.93;;;19.90;99.90;;;;;;5089432;28;20089;-53
2022/08/28 00:08:25;;;;;;;6.07;5.00;;;19.90;99.90;;;;;;5109727;28;20023;-47
2022/08/28 00:10:52;;;;;;;6.93;4.47;;;19.90;99.90;;;;;;5088183;28;20047;-49
2022/08/28 00:13:20;;;;;;;8.52;4.25;;;19.90;99.90;;;;;;5109615;28;20027;-51
2022/08/28 00:15:49;;;;;;;5.90;4.57;;;19.90;99.90;;;;;;5089333;28;20290;-53
2022/08/28 00:18:14;;;;;;;6.85;4.72;;;19.90;99.90;;;;;;5089179;28;20028;-51
2022/08/28 00:20:40;;;;;;;7.43;4.57;;;19.90;99.90;;;;;;5108574;28;20104;-51
2022/08/28 00:23:05;;;;;;;8.70;5.43;;;19.90;99.90;;;;;;5081397;28;20372;-50
2022/08/28 00:25:33;;;;;;;8.57;4.45;;;19.90;99.90;;;;;;5108654;28;20050;-50
2022/08/28 00:28:03;;;;;;;7.40;4.70;;;19.90;99.90;;;;;;5087421;28;20028;-48
2022/08/28 00:30:34;;;;;;;7.28;4.25;;;19.90;99.90;;;;;;5108547;28;20387;-50
2022/08/28 00:33:11;;;;;;;8.75;4.57;;;19.90;99.90;;;;;;5102585;28;20032;-51
2022/08/28 00:35:38;;;;;;;6.78;4.50;;;19.90;99.90;;;;;;5068952;28;20111;-49
2022/08/28 00:38:04;;;;;;;6.38;4.78;;;19.90;99.90;;;;;;5106527;28;20019;-49
2022/08/28 00:40:30;;;;;;;9.25;5.55;;;19.90;99.90;;;;;;5108965;28;20032;-50
2022/08/28 00:42:56;;;;;;;6.05;4.20;;;19.90;99.90;;;;;;5087573;28;20173;-47
2022/08/28 00:45:23;;;;;;;7.10;4.70;;;19.90;99.90;;;;;;5108388;28;20043;-52
2022/08/28 00:47:49;;;;;;;5.22;4.28;;;19.90;99.90;;;;;;5087189;28;20107;-54
2022/08/28 00:50:17;;;;;;;5.80;4.20;;;19.90;99.90;;;;;;5108551;28;20054;-51
2022/08/28 00:52:49;;;;;;;5.60;4.45;;;19.90;99.90;;;;;;5086858;28;20399;-54
2022/08/28 00:55:18;;;;;;;6.22;4.70;;;19.90;99.90;;;;;;5068518;28;20029;-49
2022/08/28 00:57:51;;;;;;;5.65;4.07;;;19.90;99.90;;;;;;5106840;28;20026;-48
2022/08/28 01:00:30;;;;;;;5.00;4.50;;;19.90;99.90;;;;;;5068478;28;20296;-48
2022/08/28 01:02:56;;;;;;;5.68;4.53;;;19.90;99.90;;;;;;5099329;28;20491;-48
2022/08/28 01:05:23;;;;;;;6.82;4.90;;;19.80;99.90;;;;;;5108697;28;20039;-54
2022/08/28 01:07:49;;;;;;;5.80;4.28;;;19.80;99.90;;;;;;5087040;28;20396;-49
2022/08/28 01:10:20;;;;;;;7.03;4.40;;;19.80;99.90;;;;;;5108152;28;20031;-50
2022/08/28 01:12:46;;;;;;;7.40;4.75;;;19.80;99.90;;;;;;5096173;28;20034;-50
2022/08/28 01:15:16;;;;;;;6.63;4.18;;;19.80;99.90;;;;;;5108622;28;20114;-51
2022/08/28 01:17:46;;;;;;;16.23;4.88;;;19.70;99.90;;;;;;5086535;28;20040;-52
2022/08/28 01:20:17;;;;;;;5.30;4.30;;;19.80;99.90;;;;;;5067028;28;20032;-51
2022/08/28 01:23:20;;;;;;;5.38;4.05;;;19.70;99.90;;;;;;5087638;28;20292;-53
2022/08/28 01:25:46;;;;;;;8.35;5.25;;;19.80;99.90;;;;;;5088283;28;20028;-48
2022/08/28 01:28:13;;;;;;;7.30;4.47;;;19.80;99.90;;;;;;5106162;28;20084;-49
2022/08/28 01:30:44;;;;;;;9.38;4.93;;;19.70;99.90;;;;;;5108444;28;20487;-52
2022/08/28 01:33:10;;;;;;;5.80;4.10;;;19.70;99.90;;;;;;5087463;28;20043;-50
2022/08/28 01:35:40;;;;;;;6.35;4.55;;;19.70;99.90;;;;;;5108510;28;20015;-50
2022/08/28 01:38:05;;;;;;;6.88;4.65;;;19.70;99.90;;;;;;5086262;28;20073;-54
2022/08/28 01:40:41;;;;;;;9.43;4.28;;;19.70;99.90;;;;;;5109038;28;20035;-51
2022/08/28 01:43:11;;;;;;;5.97;4.32;;;19.70;99.90;;;;;;5104065;28;20383;-52
2022/08/28 01:45:43;;;;;;;5.13;3.72;;;19.60;99.90;;;;;;5071737;28;20389;-54
2022/08/28 01:48:08;;;;;;;10.00;4.50;;;19.60;99.90;;;;;;5104090;28;20035;-50
2022/08/28 01:50:34;;;;;;;7.38;4.55;;;19.60;99.90;;;;;;5112181;28;20024;-49
2022/08/28 01:53:01;;;;;;;6.10;4.65;;;19.60;99.90;;;;;;5090499;28;20569;-53
2022/08/28 01:55:27;;;;;;;6.78;4.45;;;19.60;99.90;;;;;;5111662;28;20024;-53
2022/08/28 01:57:54;;;;;;;4.82;4.28;;;19.60;99.90;;;;;;5090328;28;20028;-49
2022/08/28 02:00:25;;;;;;;7.20;4.75;;;19.60;99.90;;;;;;5111429;28;20073;-52
2022/08/28 02:02:51;;;;;;;12.77;4.85;;;19.60;99.90;;;;;;5097955;28;20038;-51
2022/08/28 02:05:18;;;;;;;10.23;5.40;;;19.60;99.90;;;;;;5112049;28;20027;-50
2022/08/28 02:07:43;;;;;;;6.20;4.80;;;19.50;99.90;;;;;;5090209;28;20308;-48
2022/08/28 02:10:10;;;;;;;9.73;5.05;;;19.50;99.90;;;;;;5111258;28;20103;-50
2022/08/28 02:12:36;;;;;;;6.18;4.72;;;19.50;99.90;;;;;;5090146;28;20085;-50
2022/08/28 02:15:06;;;;;;;7.07;4.63;;;19.50;99.90;;;;;;5111219;28;20436;-51
2022/08/28 02:17:33;;;;;;;7.97;4.07;;;19.50;99.90;;;;;;5092106;28;20047;-51
2022/08/28 02:19:58;;;;;;;6.72;4.70;;;19.40;99.90;;;;;;5091829;28;20449;-52
2022/08/28 02:22:24;;;;;;;7.28;4.53;;;19.40;99.90;;;;;;5105756;28;20303;-50
2022/08/28 02:24:50;;;;;;;10.57;5.38;;;19.40;99.90;;;;;;5091866;28;20028;-47
2022/08/28 02:27:16;;;;;;;10.73;5.30;;;19.40;99.90;;;;;;5109024;28;20038;-54
2022/08/28 02:29:42;;;;;;;7.95;5.30;;;19.40;99.90;;;;;;5091881;28;20034;-53
2022/08/28 02:32:07;;;;;;;7.25;4.68;;;19.40;99.90;;;;;;5109500;28;20040;-55
2022/08/28 02:34:33;;;;;;;8.57;4.53;;;19.40;99.90;;;;;;5097251;28;20482;-55
2022/08/28 02:36:59;;;;;;;9.73;5.10;;;19.40;99.90;;;;;;5108901;28;20102;-55
2022/08/28 02:39:24;;;;;;;12.23;4.80;;;19.40;99.90;;;;;;5111385;28;20106;-54
2022/08/28 02:41:50;;;;;;;8.00;4.25;;;19.30;99.90;;;;;;5093948;28;20081;-53
2022/08/28 02:44:16;;;;;;;9.00;4.55;;;19.40;99.90;;;;;;5111480;28;20036;-55
2022/08/28 02:46:41;;;;;;;8.40;4.47;;;19.30;99.90;;;;;;5092493;28;20464;-54
2022/08/28 02:49:07;;;;;;;6.70;4.35;;;19.30;99.90;;;;;;5111387;28;20073;-55
2022/08/28 02:51:33;;;;;;;6.43;4.30;;;19.30;99.90;;;;;;5090731;28;20036;-54
2022/08/28 02:54:00;;;;;;;8.23;3.92;;;19.30;99.90;;;;;;5110971;28;20103;-51
2022/08/28 02:56:26;;;;;;;5.30;4.32;;;19.30;99.90;;;;;;5089855;28;20039;-53
2022/08/28 02:58:51;;;;;;;6.15;3.45;;;19.30;99.90;;;;;;5111191;28;20660;-55
2022/08/28 03:01:17;;;;;;;7.70;4.68;;;19.40;99.90;;;;;;5091092;28;20043;-53
2022/08/28 03:03:43;;;;;;;10.48;4.78;;;19.40;99.90;;;;;;5108407;28;20043;-55
2022/08/28 03:06:13;;;;;;;6.95;3.83;;;19.30;99.90;;;;;;5090896;28;20035;-54
2022/08/28 03:08:40;;;;;;;4.70;3.70;;;19.30;99.90;;;;;;5106609;28;20103;-55
2022/08/28 03:11:06;;;;;;;6.28;4.32;;;19.30;99.90;;;;;;5110778;28;20055;-54
2022/08/28 03:13:32;;;;;;;5.97;4.25;;;19.20;99.90;;;;;;5089020;28;20085;-52
2022/08/28 03:15:58;;;;;;;11.05;4.93;;;19.20;99.90;;;;;;5109958;28;20024;-53
2022/08/28 03:18:26;;;;;;;7.47;4.20;;;19.20;99.90;;;;;;5088992;28;20035;-56
2022/08/28 03:20:52;;;;;;;6.85;4.32;;;19.20;99.90;;;;;;5110173;28;20058;-56
2022/08/28 03:23:27;;;;;;;7.88;4.15;;;19.20;99.90;;;;;;5082488;28;20365;-56
2022/08/28 03:25:54;;;;;;;8.68;4.50;;;19.20;99.90;;;;;;5069858;28;20031;-56
2022/08/28 03:28:19;;;;;;;8.95;4.10;;;19.10;99.90;;;;;;5107743;28;20027;-56
2022/08/28 03:30:44;;;;;;;5.78;3.67;;;19.10;99.90;;;;;;5110282;28;20028;-56
2022/08/28 03:33:10;;;;;;;8.02;3.90;;;19.10;99.90;;;;;;5089605;28;20488;-55
2022/08/28 03:35:39;;;;;;;7.32;3.88;;;19.10;99.90;;;;;;5110429;28;20028;-55
2022/08/28 03:38:04;;;;;;;5.47;3.38;;;19.00;99.90;;;;;;5088144;28;20028;-54
2022/08/28 03:40:31;;;;;;;8.40;4.25;;;19.00;99.90;;;;;;5109378;28;20115;-56
2022/08/28 03:42:57;;;;;;;7.63;4.00;;;19.00;99.90;;;;;;5088378;28;20055;-56
2022/08/28 03:45:23;;;;;;;5.25;3.47;;;19.00;99.90;;;;;;5109462;28;20031;-56
2022/08/28 03:47:49;;;;;;;5.45;3.30;;;19.00;99.90;;;;;;5099504;28;20164;-51
2022/08/28 03:50:16;;;;;;;4.95;2.90;;;19.00;99.90;;;;;;5090175;28;20024;-57
2022/08/28 03:52:42;;;;;;;10.50;3.90;;;18.90;99.90;;;;;;5107490;28;20034;-55
2022/08/28 03:55:09;;;;;;;6.47;3.40;;;18.90;99.90;;;;;;5090247;28;20480;-56
2022/08/28 03:57:35;;;;;;;8.00;3.72;;;18.90;99.90;;;;;;5107324;28;20031;-53
2022/08/28 04:00:02;;;;;;;7.95;3.55;;;18.90;99.90;;;;;;5090234;28;20028;-56
2022/08/28 04:02:28;;;;;;;5.13;3.38;;;18.90;99.90;;;;;;5107451;28;20050;-55
2022/08/28 04:04:53;;;;;;;7.45;4.65;;;18.90;99.90;;;;;;5108900;28;20028;-54
2022/08/28 04:07:19;;;;;;;8.73;3.88;;;18.90;99.90;;;;;;5094339;28;20541;-56
2022/08/28 04:09:45;;;;;;;8.10;3.92;;;18.90;99.90;;;;;;5109924;28;20026;-56
2022/08/28 04:12:11;;;;;;;11.50;4.88;;;18.80;99.90;;;;;;5092885;28;20066;-56
2022/08/28 04:14:37;;;;;;;7.38;4.07;;;18.80;99.90;;;;;;5109530;28;20085;-55
2022/08/28 04:17:04;;;;;;;7.10;4.00;;;18.80;99.90;;;;;;5091465;28;20047;-55
2022/08/28 04:19:29;;;;;;;8.48;4.53;;;18.80;99.90;;;;;;5109686;28;20016;-55
2022/08/28 04:21:55;;;;;;;10.30;3.85;;;18.80;99.90;;;;;;5083807;28;20092;-55
2022/08/28 04:24:21;;;;;;;7.35;4.28;;;18.80;99.90;;;;;;5109646;28;20020;-55
2022/08/28 04:26:47;;;;;;;6.75;3.70;;;18.70;99.90;;;;;;5107384;28;20032;-52
2022/08/28 04:29:13;;;;;;;8.85;3.58;;;18.80;99.90;;;;;;5109528;28;20016;-54
2022/08/28 04:31:38;;;;;;;7.65;3.60;;;18.70;99.90;;;;;;5088278;28;20047;-51
2022/08/28 04:34:07;;;;;;;6.63;3.85;;;18.70;99.90;;;;;;5098285;28;20592;-52
2022/08/28 04:36:33;;;;;;;6.22;3.83;;;18.70;99.90;;;;;;5108924;28;20035;-56
2022/08/28 04:38:59;;;;;;;11.02;4.35;;;18.70;99.90;;;;;;5087576;28;20068;-54
2022/08/28 04:41:26;;;;;;;6.90;4.13;;;18.70;99.90;;;;;;5108550;28;20110;-56
2022/08/28 04:43:52;;;;;;;5.05;3.80;;;18.70;99.90;;;;;;5087652;28;20058;-55
2022/08/28 04:46:18;;;;;;;7.13;3.42;;;18.70;99.90;;;;;;5108613;28;20024;-56
2022/08/28 04:48:43;;;;;;;7.07;3.97;;;18.70;99.90;;;;;;5087468;28;20040;-54
2022/08/28 04:51:13;;;;;;;6.15;3.38;;;18.70;99.90;;;;;;5108360;28;20031;-53
2022/08/28 04:53:39;;;;;;;6.22;3.85;;;18.60;99.90;;;;;;5086795;28;20024;-52
2022/08/28 04:56:08;;;;;;;7.80;3.72;;;18.60;99.90;;;;;;5108580;28;20028;-52
2022/08/28 04:58:34;;;;;;;5.50;3.33;;;18.60;99.90;;;;;;5086995;28;20085;-56
2022/08/28 05:01:09;;;;;;;6.88;3.45;;;18.60;99.90;;;;;;5108238;28;20110;-55
2022/08/28 05:03:35;;;;;;;5.70;3.58;;;18.60;99.90;;;;;;5087197;28;20113;-55
2022/08/28 05:06:02;;;;;;;4.85;3.15;;;18.60;99.90;;;;;;5108228;28;20057;-56
2022/08/28 05:08:28;;;;;;;5.32;3.40;;;18.60;99.90;;;;;;5087212;28;20032;-55
2022/08/28 05:10:55;;;;;;;6.78;4.13;;;18.60;99.90;;;;;;5108146;28;20040;-54
2022/08/28 05:13:20;;;;;;;6.15;3.88;;;18.60;99.90;;;;;;5087150;28;20028;-54
2022/08/28 05:15:48;;;;;;;6.20;3.53;;;18.60;99.90;;;;;;5110236;28;20249;-51
2022/08/28 05:18:15;;;;;;;7.32;3.60;;;18.60;99.90;;;;;;5091056;28;20032;-55
2022/08/28 05:20:44;;;;;;;6.53;3.65;;;18.60;99.90;;;;;;5112380;28;20031;-53
2022/08/28 05:23:10;;;;;;;5.15;3.92;;;18.60;99.90;;;;;;5098437;28;20080;-51
2022/08/28 05:25:38;;;;;;;8.23;4.35;;;18.50;99.90;;;;;;5092869;28;20024;-54
2022/08/28 05:28:04;;;;;;;10.32;4.40;;;18.50;99.90;;;;;;5110571;28;20028;-53
2022/08/28 05:30:30;;;;;;;5.75;4.05;;;18.50;99.90;;;;;;5092820;28;20035;-52
2022/08/28 05:32:56;;;;;;;7.80;4.18;;;18.50;99.90;;;;;;5110177;28;20020;-52
2022/08/28 05:35:21;;;;;;;11.88;4.28;;;18.50;99.90;;;;;;5092787;28;20066;-55
2022/08/28 05:37:47;;;;;;;7.38;4.13;;;18.50;99.90;;;;;;5109954;28;20028;-51
2022/08/28 05:40:12;;;;;;;7.53;4.90;;;18.50;99.90;;;;;;5112826;28;20038;-55
2022/08/28 05:42:38;;;;;;;8.20;3.97;;;18.50;99.90;;;;;;5096798;28;20558;-53
2022/08/28 05:45:05;;;;;;;11.13;4.40;;;18.50;99.90;;;;;;5112494;28;20073;-53
2022/08/28 05:47:31;;;;;;;6.55;4.43;;;18.50;99.90;;;;;;5095560;28;20143;-49
2022/08/28 05:49:57;;;;;;;6.25;4.40;;;18.50;99.90;;;;;;5112368;28;20023;-53
2022/08/28 05:52:23;;;;;;;9.48;4.85;;;18.50;99.90;;;;;;5094347;28;20398;-54
2022/08/28 05:54:50;;;;;;;7.60;4.97;;;18.50;99.90;;;;;;5112362;28;20016;-54
2022/08/28 05:57:16;;;;;;;10.02;4.97;;;18.50;99.90;;;;;;5093117;28;20433;-50
2022/08/28 05:59:41;;;;;;;8.27;4.00;;;18.50;99.90;;;;;;5112299;28;20087;-52
2022/08/28 06:02:06;;;;;;;7.45;4.60;;;18.50;99.90;;;;;;5091501;28;20036;-52
2022/08/28 06:04:32;;;;;;;6.07;4.65;;;18.50;99.90;;;;;;5112516;28;20055;-53
2022/08/28 06:06:57;;;;;;;9.65;4.88;;;18.50;99.90;;;;;;5092077;28;20387;-55
2022/08/28 06:09:25;;;;;;;14.35;5.00;;;18.50;99.90;;;;;;5110049;28;20070;-52
2022/08/28 06:11:57;;;;;;;6.93;4.40;;;18.50;99.90;;;;;;5091842;28;20464;-56
2022/08/28 06:14:23;;;;;;;7.35;4.53;;;18.50;99.90;;;;;;5109482;28;20365;-54
2022/08/28 06:16:51;;;;;;;9.27;4.82;;;18.60;99.90;;;;;;5111738;28;20028;-54
2022/08/28 06:19:19;;;;;;;7.68;4.38;;;18.70;99.90;;;;;;5090113;28;20119;-54
2022/08/28 06:21:50;;;;;;;6.65;4.85;;;18.70;99.90;;;;;;5103206;28;20115;-55
2022/08/28 06:24:16;;;;;;;8.88;5.32;;;18.80;99.90;;;;;;5089727;28;20039;-51
2022/08/28 06:26:42;;;;;;;7.57;4.68;;;18.80;99.90;;;;;;5109992;28;20035;-55
2022/08/28 06:29:12;;;;;;;9.52;4.63;;;18.90;99.90;;;;;;5089958;28;20376;-56
2022/08/28 06:31:39;;;;;;;9.13;4.78;;;19.10;99.90;;;;;;5071140;28;20115;-54
2022/08/28 06:34:05;;;;;;;7.78;5.10;;;19.20;99.90;;;;;;5108258;28;20043;-52
2022/08/28 06:36:33;;;;;;;9.77;4.97;;;19.30;99.90;;;;;;5091417;28;20070;-54
2022/08/28 06:39:00;;;;;;;8.80;4.97;;;19.50;99.90;;;;;;5109243;28;20338;-56
2022/08/28 06:41:27;;;;;;;10.27;4.85;;;19.60;99.90;;;;;;5111246;28;20024;-56
2022/08/28 06:43:53;;;;;;;7.78;4.60;;;19.60;99.90;;;;;;5089617;28;20028;-54
2022/08/28 06:46:19;;;;;;;6.07;4.10;;;19.70;99.90;;;;;;5110804;28;20395;-52
2022/08/28 06:48:44;;;;;;;7.63;4.80;;;19.70;99.90;;;;;;5088385;28;20028;-56
2022/08/28 06:51:11;;;;;;;10.00;4.32;;;19.70;99.90;;;;;;5110393;28;20453;-55
2022/08/28 06:53:39;;;;;;;7.90;4.82;;;19.60;99.90;;;;;;5089331;28;20020;-55
2022/08/28 06:56:13;;;;;;;7.28;4.60;;;19.60;99.90;;;;;;5110769;28;20028;-50
2022/08/28 06:58:41;;;;;;;7.30;4.70;;;19.60;99.90;;;;;;5094003;28;20031;-52
2022/08/28 07:01:21;;;;;;;6.63;4.03;;;19.70;99.90;;;;;;5110918;28;20432;-53
2022/08/28 07:03:48;;;;;;;7.53;4.82;;;19.70;99.90;;;;;;5095599;28;20088;-56
2022/08/28 07:06:14;;;;;;;8.15;4.68;;;19.80;99.90;;;;;;5110756;28;20430;-54
2022/08/28 07:08:42;;;;;;;9.15;4.65;;;19.80;99.90;;;;;;5089074;28;20039;-54
2022/08/28 07:11:27;;;;;;;7.07;4.53;;;20.00;99.90;;;;;;5110334;28;20506;-54
2022/08/28 07:13:54;;;;;;;9.07;3.60;;;20.00;99.90;;;;;;5096607;28;20062;-55
2022/08/28 07:16:22;;;;;;;6.07;3.75;;;20.10;99.90;;;;;;5110621;28;20038;-56
2022/08/28 07:18:48;;;;;;;5.95;4.03;;;20.20;99.90;;;;;;5088543;28;20028;-54
2022/08/28 07:21:13;;;;;;;11.02;4.70;;;20.50;99.90;;;;;;5109757;28;20032;-53
2022/08/28 07:23:41;;;;;;;7.93;4.22;;;20.60;99.90;;;;;;5085661;28;20104;-51
2022/08/28 07:26:10;;;;;;;8.35;4.32;;;20.80;99.90;;;;;;5110009;28;20027;-56
2022/08/28 07:28:36;;;;;;;8.93;3.53;;;20.80;99.90;;;;;;5099440;28;20024;-55
2022/08/28 07:31:06;;;;;;;7.28;3.60;;;21.10;99.90;;;;;;5089251;28;20055;-53
2022/08/28 07:33:32;;;;;;;4.70;3.40;;;21.20;99.90;;;;;;5108428;28;20131;-53
2022/08/28 07:35:59;;;;;;;6.38;3.60;;;21.40;99.70;;;;;;5090250;28;20384;-55
2022/08/28 07:38:25;;;;;;;7.68;3.63;;;21.70;99.30;;;;;;5107706;28;20070;-56
2022/08/28 07:40:51;;;;;;;5.60;2.85;;;22.00;97.80;;;;;;5090273;28;20035;-54
2022/08/28 07:46:08;;;;;;;6.95;4.05;;;22.30;94.90;;;;;;5069610;28;20053;-54
2022/08/28 07:48:34;;;;;;;7.90;3.25;;;22.30;93.70;;;;;;5088337;28;20031;-54
2022/08/28 07:51:04;;;;;;;9.35;3.65;;;22.10;93.80;;;;;;5090009;28;20028;-54
2022/08/28 07:53:29;;;;;;;11.05;3.83;;;22.00;94.70;;;;;;5107915;28;20032;-55
2022/08/28 07:55:55;;;;;;;6.00;3.72;;;21.90;93.90;;;;;;5090076;28;20032;-56
2022/08/28 07:58:24;;;;;;;8.90;4.10;;;21.80;94.40;;;;;;5107416;28;20027;-55
2022/08/28 08:00:49;;;;;;;12.00;3.80;;;21.70;93.40;;;;;;5089497;28;20054;-56
2022/08/28 08:03:15;;;;;;;7.07;3.85;;;21.70;93.10;;;;;;5105942;28;20027;-54
2022/08/28 08:05:49;;;;;;;6.95;3.35;;;21.70;92.70;;;;;;5109705;28;20023;-56
2022/08/28 08:08:15;;;;;;;6.32;3.75;;;21.80;92.80;;;;;;5081702;28;20031;-55
2022/08/28 08:10:40;;;;;;;5.15;3.17;;;21.70;91.60;;;;;;5109812;28;20391;-51
2022/08/28 08:13:06;;;;;;;6.07;3.63;;;21.70;92.20;;;;;;5093795;28;20024;-52
2022/08/28 08:15:32;;;;;;;7.57;3.80;;;21.60;91.70;;;;;;5109667;28;20079;-55
2022/08/28 08:17:58;;;;;;;6.28;4.15;;;21.50;91.10;;;;;;5092280;28;20055;-54
2022/08/28 08:20:23;;;;;;;10.55;4.13;;;21.40;91.00;;;;;;5109603;28;20368;-54
2022/08/28 08:22:49;;;;;;;11.00;4.68;;;21.50;89.10;;;;;;5093003;28;20276;-56
2022/08/28 08:25:14;;;;;;;6.70;3.60;;;21.80;88.90;;;;;;5109297;28;20038;-55
2022/08/28 08:27:40;;;;;;;10.13;3.65;;;22.20;87.70;;;;;;5089480;28;20480;-51
2022/08/28 08:30:06;;;;;;;5.85;3.70;;;22.70;87.70;;;;;;5109518;28;20016;-56
2022/08/28 08:32:31;;;;;;;8.48;3.13;;;23.20;85.50;;;;;;5087994;28;20032;-56
2022/08/28 08:34:58;;;;;;;7.22;3.33;;;23.50;80.00;;;;;;5108031;28;20613;-56
2022/08/28 08:37:23;;;;;;;6.18;2.97;;;23.80;83.90;;;;;;5089402;28;20404;-52
2022/08/28 08:39:49;;;;;;;4.32;2.65;;;24.30;80.20;;;;;;5106771;28;20023;-57
2022/08/28 08:42:25;;;;;;;6.00;3.15;;;24.60;77.40;;;;;;5109084;28;20510;-57
2022/08/28 08:44:52;;;;;;;7.50;3.05;;;24.80;72.30;;;;;;5087110;28;20171;-54
2022/08/28 08:47:32;;;;;;;6.35;3.13;;;25.00;74.00;;;;;;5108738;28;20043;-54
2022/08/28 08:50:01;;;;;;;6.43;3.28;;;25.10;70.40;;;;;;5068153;28;20085;-53
2022/08/28 08:52:27;;;;;;;6.50;3.30;;;25.10;68.80;;;;;;5108766;28;20031;-51
2022/08/28 08:55:05;;;;;;;6.75;3.65;;;25.00;68.10;;;;;;5087162;28;20399;-52
2022/08/28 08:57:32;;;;;;;5.38;2.70;;;25.00;60.30;;;;;;5107376;28;20410;-48
2022/08/28 08:59:58;;;;;;;7.97;3.67;;;24.90;66.20;;;;;;5107164;28;20031;-51
2022/08/28 09:02:31;;;;;;;8.23;3.33;;;24.70;62.10;;;;;;5089050;28;20051;-49
2022/08/28 09:05:03;;;;;;;12.55;3.38;;;24.80;63.20;;;;;;5106359;28;20028;-51
2022/08/28 09:07:37;;;;;;;5.03;2.88;;;24.70;62.80;;;;;;5068353;28;20155;-50
2022/08/28 09:10:05;;;;;;;10.35;3.15;;;24.60;59.50;;;;;;5068439;28;20090;-52
2022/08/28 09:12:48;;;;;;;4.68;2.88;;;24.40;62.70;;;;;;5108144;28;20495;-52
2022/08/28 09:15:21;;;;;;;6.03;3.10;;;24.30;59.40;;;;;;5068590;28;20031;-54
2022/08/28 09:17:51;;;;;;;7.25;3.13;;;24.20;61.40;;;;;;5067678;28;20477;-49
2022/08/28 09:20:20;;;;;;;7.05;3.10;;;24.10;59.80;;;;;;5108980;28;20333;-49
2022/08/28 09:22:47;;;;;;;10.10;3.40;;;23.90;62.30;;;;;;5090604;28;20032;-59
2022/08/28 09:25:55;;;;;;;5.75;3.10;;;23.70;62.80;;;;;;5108975;28;20019;-52
2022/08/28 09:28:28;;;;;;;8.65;3.58;;;23.60;60.50;;;;;;5097546;28;20031;-53
2022/08/28 09:31:03;;;;;;;7.45;3.20;;;23.60;62.90;;;;;;5068368;28;20025;-52
2022/08/28 09:33:42;;;;;;;6.75;2.88;;;23.50;63.10;;;;;;5079791;28;20403;-54
2022/08/28 09:36:33;;;;;;;6.00;2.72;;;23.40;63.20;;;;;;5107413;28;20038;-53
2022/08/28 09:39:22;;;;;;;7.63;3.10;;;23.30;61.50;;;;;;5088059;28;20490;-54
2022/08/28 09:44:55;;;;;;;7.38;4.00;;;23.10;62.30;;;;;;5102036;28;20151;-53
2022/08/28 09:47:47;;;;;;;7.80;3.80;;;23.00;64.30;;;;;;5068145;28;20132;-51
2022/08/28 09:50:21;;;;;;;7.13;3.90;;;23.10;62.60;;;;;;5066981;28;20028;-53
2022/08/28 09:52:48;;;;;;;10.15;4.22;;;23.20;62.70;;;;;;5106091;28;20020;-51
2022/08/28 09:55:38;;;;;;;10.85;3.80;;;23.10;62.60;;;;;;5108629;28;20051;-53
2022/08/28 09:58:04;;;;;;;9.13;3.95;;;23.00;62.10;;;;;;5071251;28;20028;-54
2022/08/28 10:00:35;;;;;;;10.45;3.67;;;22.80;64.50;;;;;;5108556;28;20506;-53
2022/08/28 10:03:29;;;;;;;10.68;3.75;;;22.80;64.50;;;;;;5072519;28;20112;-51
2022/08/28 10:06:33;;;;;;;5.20;3.42;;;22.70;64.20;;;;;;5111973;28;20127;-50
2022/08/28 10:09:25;;;;;;;5.65;4.03;;;22.60;64.00;;;;;;5089386;28;20496;-52
2022/08/28 10:12:24;;;;;;;7.85;3.67;;;22.70;64.10;;;;;;5071407;28;20072;-49
2022/08/28 10:15:20;;;;;;;8.38;3.83;;;22.80;64.00;;;;;;5103531;28;20027;-54
2022/08/28 10:18:39;;;;;;;10.75;5.25;;;22.90;63.60;;;;;;5071345;28;20028;-53
2022/08/28 10:21:30;;;;;;;5.93;3.78;;;22.80;62.60;;;;;;5084817;28;20041;-52
2022/08/28 10:24:11;;;;;;;9.75;3.85;;;22.80;64.60;;;;;;5081753;28;20047;-50
2022/08/28 10:26:54;;;;;;;10.05;4.45;;;22.70;64.40;;;;;;5071169;28;20488;-51
2022/08/28 10:29:46;;;;;;;6.97;4.25;;;22.60;64.60;;;;;;5094020;28;20072;-54
2022/08/28 10:32:54;;;;;;;7.78;4.13;;;22.60;64.50;;;;;;5071215;28;20033;-58
2022/08/28 10:35:39;;;;;;;;;;;22.50;64.60;;;;;;5078449;28;20043;-59
2022/08/28 10:38:11;;;;;;;7.35;3.92;;;22.50;64.50;;;;;;5070384;28;20054;-59
2022/08/28 10:40:54;;;;;;;8.75;4.20;;;22.60;65.70;;;;;;5111521;28;20390;-58
2022/08/28 10:43:33;;;;;;;8.88;5.22;;;22.60;65.50;;;;;;5076132;28;20027;-59
2022/08/28 10:46:06;;;;;;;7.97;4.05;;;22.50;65.90;;;;;;5111464;28;20394;-59
2022/08/28 10:48:47;;;;;;;11.50;4.32;;;22.60;66.20;;;;;;5094284;28;20123;-59
2022/08/28 10:51:34;;;;;;;8.50;4.32;;;22.70;64.80;;;;;;5111389;28;20027;-59
2022/08/28 10:54:06;;;;;;;8.48;4.68;;;22.70;65.80;;;;;;5086380;28;20163;-58
2022/08/28 10:56:50;;;;;;;10.40;4.88;;;22.90;65.30;;;;;;5070711;28;20107;-59
2022/08/28 10:59:16;;;;;;;9.18;5.22;;;23.00;62.60;;;;;;5090556;28;20521;-60
2022/08/28 11:01:43;;;;;;;11.27;7.72;;;23.00;64.10;;;;;;5091014;28;20087;-58
2022/08/28 11:04:17;;;;;;;10.25;6.85;;;23.00;63.60;;;;;;5108767;28;20032;-59
2022/08/28 11:06:49;;;;;;;11.82;7.95;;;23.00;63.50;;;;;;5070290;28;20213;-59
2022/08/28 11:09:28;;;;;;;8.75;5.85;;;22.90;63.70;;;;;;5089388;28;20073;-59
2022/08/28 11:12:04;;;;;;;12.95;6.47;;;22.90;63.50;;;;;;5069100;28;20706;-59
2022/08/28 11:14:34;;;;;;;9.48;6.40;;;22.80;63.80;;;;;;5092809;28;20483;-59
2022/08/28 11:17:08;;;;;;;14.77;7.75;;;22.80;64.10;;;;;;5090422;28;20089;-59
2022/08/28 11:20:14;;;;;;;13.18;7.55;;;22.70;64.20;;;;;;5108961;28;20032;-59
2022/08/28 11:22:56;;;;;;;11.20;7.47;;;22.70;63.00;;;;;;5083213;28;20127;-58
2022/08/28 11:25:24;;;;;;;9.82;6.72;;;22.80;64.20;;;;;;5107379;28;20039;-59
2022/08/28 11:28:38;;;;;;;9.88;6.57;;;23.00;62.90;;;;;;5109183;28;20462;-59
2022/08/28 11:31:03;;;;;;;8.57;5.63;;;23.10;60.20;;;;;;5110588;28;20035;-59
2022/08/28 11:33:44;;;;;;;9.57;6.78;;;23.00;62.20;;;;;;5092178;28;20040;-59
2022/08/28 11:36:18;;;;;;;10.73;6.15;;;23.10;61.70;;;;;;5110429;28;20095;-59
2022/08/28 11:38:44;;;;;;;9.25;6.40;;;23.30;61.30;;;;;;5108563;28;20020;-60
2022/08/28 11:41:39;;;;;;;8.25;5.47;;;23.50;61.30;;;;;;5110303;28;20024;-59
2022/08/28 11:44:13;;;;;;;6.68;5.15;;;23.60;59.40;;;;;;5084082;28;20020;-59
2022/08/28 11:46:47;;;;;;;11.68;5.68;;;23.60;59.50;;;;;;5069563;28;20549;-59
2022/08/28 11:49:25;;;;;;;7.82;4.55;;;23.30;59.10;;;;;;5086000;28;20030;-59
2022/08/28 11:51:59;;;;;;;7.38;4.82;;;23.20;58.50;;;;;;5090491;28;20035;-59
2022/08/28 11:54:37;;;;;;;7.35;4.90;;;23.10;59.80;;;;;;5088916;28;20035;-59
2022/08/28 11:57:44;;;;;;;9.45;5.35;;;23.00;59.20;;;;;;5090165;28;20035;-59
2022/08/28 12:00:22;;;;;;;9.38;4.43;;;22.80;59.20;;;;;;5092113;28;20047;-59
2022/08/28 12:02:51;;;;;;;7.80;4.40;;;22.80;61.10;;;;;;5069242;28;20028;-58
2022/08/28 12:05:17;;;;;;;7.30;4.07;;;22.70;61.80;;;;;;5107667;28;20102;-59
2022/08/28 12:07:47;;;;;;;8.02;5.20;;;22.80;61.10;;;;;;5109630;28;20495;-58
2022/08/28 12:10:19;;;;;;;8.95;4.80;;;22.80;60.10;;;;;;5087841;28;20024;-59
2022/08/28 12:12:44;;;;;;;7.82;4.20;;;22.80;59.60;;;;;;5109089;28;20027;-59
2022/08/28 12:15:30;;;;;;;8.20;4.72;;;22.90;60.60;;;;;;5088060;28;20483;-59
2022/08/28 12:18:00;;;;;;;7.20;3.73;;;22.90;59.60;;;;;;5068930;28;20400;-59
2022/08/28 12:20:40;;;;;;;9.48;3.95;;;23.10;60.20;;;;;;5106789;28;20341;-60
2022/08/28 12:23:30;;;;;;;5.80;3.95;;;23.20;59.80;;;;;;5062978;28;20036;-59
2022/08/28 12:26:02;;;;;;;6.82;3.85;;;23.30;58.60;;;;;;5068174;28;20068;-59
2022/08/28 12:28:44;;;;;;;3.53;3.22;;;23.30;58.60;;;;;;5107446;28;20020;-59
2022/08/28 12:32:13;;;;;;;5.30;3.83;;;23.30;57.60;;;;;;5109666;28;20024;-59
2022/08/28 12:34:25;;;;;;;5.03;3.85;;;23.30;58.50;;;;;;5089355;28;20048;-59
2022/08/28 12:36:57;;;;;;;7.35;4.13;;;23.40;57.90;;;;;;5068860;28;20032;-58
2022/08/28 12:39:23;;;;;;;6.18;4.15;;;23.50;57.50;;;;;;5106992;28;20058;-59
2022/08/28 12:41:48;;;;;;;6.25;4.72;;;23.50;56.90;;;;;;5089305;28;20063;-59
2022/08/28 12:44:14;;;;;;;8.35;4.72;;;23.40;56.20;;;;;;5106571;28;20152;-59
2022/08/28 12:46:42;;;;;;;7.07;4.15;;;23.30;56.60;;;;;;5107978;28;20073;-59
2022/08/28 12:49:33;;;;;;;6.68;4.75;;;23.30;57.00;;;;;;5093918;28;20031;-59
2022/08/28 12:52:21;;;;;;;5.90;4.25;;;23.20;55.00;;;;;;5089037;28;20016;-59
2022/08/28 12:54:49;;;;;;;8.18;4.38;;;23.20;56.70;;;;;;5107121;28;20031;-58
2022/08/28 12:57:18;;;;;;;5.93;3.60;;;23.30;56.60;;;;;;5109048;28;20073;-59
2022/08/28 12:59:52;;;;;;;5.88;3.70;;;23.30;57.00;;;;;;5098198;28;20152;-59
2022/08/28 13:02:27;;;;;;;6.40;3.88;;;23.30;56.40;;;;;;5068595;28;20029;-59
2022/08/28 13:05:04;;;;;;;5.90;3.77;;;23.40;55.70;;;;;;5106750;28;20164;-59
2022/08/28 13:07:33;;;;;;;6.30;3.97;;;23.30;56.50;;;;;;5068628;28;20028;-59
2022/08/28 13:10:04;;;;;;;5.97;3.70;;;23.30;56.50;;;;;;5106548;28;20085;-59